createdAt,value
2018-12-21T00:00:55.167Z,26.77
2018-12-21T00:05:59.472Z,28.50
2018-12-21T00:11:03.872Z,29.97
2018-12-21T00:16:08.870Z,28.80
2018-12-21T00:21:21.515Z,30.07
2018-12-21T00:26:19.372Z,28.30
2018-12-21T00:31:28.722Z,26.17
2018-12-21T00:36:38.584Z,28.13
2018-12-21T00:41:41.995Z,28.67
2018-12-21T00:46:51.406Z,28.83
2018-12-21T00:52:00.585Z,30.53
2018-12-21T00:57:04.790Z,26.00
2018-12-21T01:02:09.354Z,27.17
2018-12-21T01:07:13.966Z,28.47
2018-12-21T01:12:18.862Z,23.53
2018-12-21T01:17:23.484Z,27.37
2018-12-21T01:22:28.295Z,30.90
2018-12-21T01:27:33.064Z,28.87
2018-12-21T01:32:37.478Z,29.77
2018-12-21T01:37:42.077Z,26.57
2018-12-21T01:42:46.514Z,29.23
2018-12-21T01:47:51.676Z,27.03
2018-12-21T01:52:55.885Z,29.10
2018-12-21T01:58:00.106Z,24.33
2018-12-21T02:03:04.530Z,22.90
2018-12-21T02:08:08.906Z,22.60
2018-12-21T02:13:14.122Z,24.50
2018-12-21T02:18:19.293Z,27.20
2018-12-21T02:23:24.121Z,27.30
2018-12-21T02:28:28.555Z,29.50
2018-12-21T02:33:32.845Z,32.67
2018-12-21T02:38:37.186Z,25.27
2018-12-21T02:43:41.468Z,25.13
2018-12-21T02:48:46.879Z,25.73
2018-12-21T02:53:56.377Z,26.20
2018-12-21T02:59:00.843Z,25.63
2018-12-21T03:04:14.875Z,22.00
2018-12-21T03:09:19.168Z,25.83
2018-12-21T03:14:28.541Z,26.00
2018-12-21T03:19:32.721Z,26.40
2018-12-21T03:24:37.068Z,25.47
2018-12-21T03:29:41.666Z,25.43
2018-12-21T03:34:45.820Z,27.43
2018-12-21T03:39:50.051Z,29.17
2018-12-21T03:44:54.425Z,34.10
2018-12-21T03:49:58.615Z,32.67
2018-12-21T03:55:02.895Z,32.07
2018-12-21T04:00:08.487Z,28.50
2018-12-21T04:05:12.940Z,32.00
2018-12-21T04:10:17.215Z,36.07
2018-12-21T04:15:21.547Z,31.83
2018-12-21T04:20:25.727Z,31.20
2018-12-21T04:25:39.433Z,29.63
2018-12-21T04:30:43.926Z,33.83
2018-12-21T04:35:49.481Z,35.67
2018-12-21T04:40:53.728Z,35.70
2018-12-21T04:45:58.067Z,35.37
2018-12-21T04:51:03.292Z,31.30
2018-12-21T04:56:07.491Z,30.47
2018-12-21T05:01:11.772Z,27.47
2018-12-21T05:06:16.078Z,33.77
2018-12-21T05:11:20.779Z,34.57
2018-12-21T05:16:24.993Z,31.50
2018-12-21T05:21:29.186Z,28.67
2018-12-21T05:26:33.395Z,31.70
2018-12-21T05:31:37.672Z,31.00
2018-12-21T05:36:41.784Z,32.30
2018-12-21T05:41:47.798Z,31.63
2018-12-21T05:46:52.282Z,32.87
2018-12-21T05:51:56.561Z,31.07
2018-12-21T05:57:00.801Z,30.13
2018-12-21T06:02:05.517Z,31.00
2018-12-21T06:07:10.020Z,31.17
2018-12-21T06:12:16.058Z,31.17
2018-12-21T06:17:20.641Z,30.30
2018-12-21T06:22:24.871Z,27.63
2018-12-21T06:27:30.069Z,31.23
2018-12-21T06:32:34.511Z,32.53
2018-12-21T06:37:38.889Z,34.43
2018-12-21T06:42:43.177Z,28.57
2018-12-21T06:47:47.555Z,33.60
2018-12-21T06:52:52.240Z,28.47
2018-12-21T06:57:56.662Z,29.67
2018-12-21T07:03:01.397Z,33.90
2018-12-21T07:08:05.873Z,31.43
2018-12-21T07:13:10.478Z,27.63
2018-12-21T07:18:15.195Z,28.87
2018-12-21T07:23:29.103Z,26.77
2018-12-21T07:28:33.593Z,31.80
2018-12-21T07:33:38.131Z,32.40
2018-12-21T07:38:42.563Z,32.03
2018-12-21T07:43:47.117Z,26.27
2018-12-21T07:48:51.522Z,29.67
2018-12-21T07:53:55.837Z,22.90
2018-12-21T07:59:00.306Z,24.80
2018-12-21T08:04:04.630Z,29.53
2018-12-21T08:09:09.054Z,26.17
2018-12-21T08:14:13.246Z,26.73
2018-12-21T08:19:17.804Z,23.10
2018-12-21T08:24:22.186Z,22.13
2018-12-21T08:29:26.856Z,20.40
2018-12-21T08:34:31.354Z,21.10
2018-12-21T08:39:35.708Z,23.03
2018-12-21T08:44:40.210Z,24.33
2018-12-21T08:49:44.768Z,24.60
2018-12-21T08:54:49.248Z,21.00
2018-12-21T08:59:54.467Z,22.20
2018-12-21T09:04:59.370Z,17.20
2018-12-21T09:10:03.662Z,16.30
2018-12-21T09:15:12.135Z,16.73
2018-12-21T09:20:16.794Z,16.70
2018-12-21T09:25:21.307Z,20.77
2018-12-21T09:30:25.674Z,19.03
2018-12-21T09:35:30.273Z,18.53
2018-12-21T09:40:35.165Z,18.43
2018-12-21T09:45:40.797Z,18.13
2018-12-21T09:50:45.295Z,16.40
2018-12-21T09:55:49.808Z,16.70
2018-12-21T10:00:59.057Z,16.30
2018-12-21T10:06:03.437Z,17.30
2018-12-21T10:11:07.849Z,16.43
2018-12-21T10:16:12.565Z,17.23
2018-12-21T10:21:21.974Z,19.27
2018-12-21T10:26:26.481Z,19.60
2018-12-21T10:31:30.961Z,19.83
2018-12-21T10:36:35.479Z,19.90
2018-12-21T10:41:39.936Z,17.00
2018-12-21T10:46:44.244Z,15.73
2018-12-21T10:51:48.652Z,18.53
2018-12-21T10:56:53.028Z,17.90
2018-12-21T11:01:57.428Z,19.17
2018-12-21T11:07:01.778Z,17.00
2018-12-21T11:12:07.267Z,19.03
2018-12-21T11:17:12.103Z,18.90
2018-12-21T11:22:18.036Z,19.23
2018-12-21T11:27:22.993Z,16.57
2018-12-21T11:32:27.667Z,16.40
2018-12-21T11:37:32.759Z,17.43
2018-12-21T11:42:43.092Z,19.33
2018-12-21T11:47:47.685Z,17.57
2018-12-21T11:52:52.534Z,20.43
2018-12-21T11:57:56.845Z,18.60
2018-12-21T12:03:01.210Z,20.10
2018-12-21T12:08:05.857Z,18.63
2018-12-21T12:13:10.171Z,17.03
2018-12-21T12:18:14.524Z,19.67
2018-12-21T12:23:19.006Z,23.10
2018-12-21T12:28:23.515Z,21.23
2018-12-21T12:33:28.277Z,19.23
2018-12-21T12:38:32.788Z,21.63
2018-12-21T12:43:37.321Z,21.17
2018-12-21T12:48:43.127Z,20.97
2018-12-21T12:53:47.436Z,18.83
2018-12-21T12:58:52.062Z,22.10
2018-12-21T13:03:56.738Z,20.87
2018-12-21T13:09:01.156Z,21.27
2018-12-21T13:14:14.098Z,19.67
2018-12-21T13:19:19.488Z,20.87
2018-12-21T13:24:23.870Z,20.57
2018-12-21T13:29:28.766Z,18.63
2018-12-21T13:34:33.309Z,20.03
2018-12-21T13:39:38.116Z,23.50
2018-12-21T13:44:48.123Z,18.57
2018-12-21T13:49:52.878Z,19.03
2018-12-21T13:54:58.707Z,18.50
2018-12-21T14:00:03.087Z,19.57
2018-12-21T14:05:12.435Z,18.80
2018-12-21T14:10:16.987Z,18.50
2018-12-21T14:15:21.459Z,21.40
2018-12-21T14:20:26.203Z,19.93
2018-12-21T14:25:30.886Z,22.63
2018-12-21T14:30:35.399Z,18.47
2018-12-21T14:35:40.709Z,18.90
2018-12-21T14:40:45.342Z,19.40
2018-12-21T14:45:49.687Z,17.20
2018-12-21T14:50:54.318Z,16.97
2018-12-21T14:55:59.061Z,18.00
2018-12-21T15:01:04.457Z,17.27
2018-12-21T15:06:09.009Z,16.20
2018-12-21T15:11:13.232Z,17.57
2018-12-21T15:16:17.744Z,17.17
2018-12-21T15:21:22.097Z,17.23
2018-12-21T15:26:26.605Z,15.90
2018-12-21T15:31:37.173Z,17.00
2018-12-21T15:36:41.676Z,20.57
2018-12-21T15:41:46.801Z,17.07
2018-12-21T15:46:51.175Z,18.10
2018-12-21T15:51:55.952Z,18.30
2018-12-21T15:57:00.443Z,20.00
2018-12-21T16:02:05.091Z,17.53
2018-12-21T16:07:10.077Z,15.90
2018-12-21T16:12:15.239Z,19.70
2018-12-21T16:17:21.625Z,18.87
2018-12-21T16:22:28.097Z,17.63
2018-12-21T16:27:33.541Z,17.17
2018-12-21T16:32:46.915Z,16.90
2018-12-21T16:37:52.207Z,15.83
2018-12-21T16:42:56.565Z,16.80
2018-12-21T16:48:01.609Z,17.43
2018-12-21T16:53:05.950Z,14.73
2018-12-21T16:58:10.627Z,17.30
2018-12-21T17:03:16.047Z,16.90
2018-12-21T17:08:20.275Z,16.53
2018-12-21T17:13:24.635Z,19.20
2018-12-21T17:18:29.568Z,17.53
2018-12-21T17:23:35.144Z,15.27
2018-12-21T17:28:39.789Z,15.83
2018-12-21T17:33:44.753Z,15.97
2018-12-21T17:38:49.512Z,17.80
2018-12-21T17:43:54.005Z,18.43
2018-12-21T17:48:58.511Z,16.70
2018-12-21T17:54:04.812Z,18.90
2018-12-21T17:59:09.411Z,18.87
2018-12-21T18:04:24.349Z,17.67
2018-12-21T18:09:33.667Z,20.60
2018-12-21T18:14:38.625Z,22.47
2018-12-21T18:19:43.792Z,23.80
2018-12-21T18:24:53.965Z,20.10
2018-12-21T18:29:58.627Z,18.73
2018-12-21T18:35:05.222Z,20.17
2018-12-21T18:40:10.547Z,17.10
2018-12-21T18:45:15.137Z,16.90
2018-12-21T18:50:19.591Z,16.70
2018-12-21T18:55:24.136Z,15.57
2018-12-21T19:00:29.363Z,15.60
2018-12-21T19:05:34.021Z,15.97
2018-12-21T19:10:39.896Z,16.90
2018-12-21T19:15:44.558Z,18.67
2018-12-21T19:20:48.936Z,19.77
2018-12-21T19:25:54.361Z,15.63
2018-12-21T19:30:59.162Z,17.93
2018-12-21T19:36:05.038Z,17.50
2018-12-21T19:41:11.833Z,17.50
2018-12-21T19:46:16.397Z,16.40
2018-12-21T19:51:21.288Z,17.10
2018-12-21T19:56:43.517Z,16.83
2018-12-21T20:01:53.629Z,17.43
2018-12-21T20:06:58.333Z,17.30
2018-12-21T20:12:03.197Z,18.20
2018-12-21T20:17:10.737Z,18.93
2018-12-21T20:22:15.416Z,17.20
2018-12-21T20:27:20.175Z,18.90
2018-12-21T20:32:25.007Z,23.13
2018-12-21T20:37:29.424Z,17.93
2018-12-21T20:42:35.250Z,22.47
2018-12-21T20:47:40.069Z,28.27
2018-12-21T20:52:46.164Z,27.77
2018-12-21T20:57:53.189Z,21.87
2018-12-21T21:03:02.899Z,26.80
2018-12-21T21:08:07.465Z,24.37
2018-12-21T21:13:19.270Z,21.10
2018-12-21T21:18:19.523Z,22.40
2018-12-21T21:23:24.512Z,23.47
2018-12-21T21:28:29.344Z,19.07
2018-12-21T21:33:35.279Z,18.77
2018-12-21T21:38:40.216Z,18.83
2018-12-21T21:43:44.899Z,21.77
2018-12-21T21:48:49.530Z,18.37
2018-12-21T21:53:56.112Z,18.63
2018-12-21T21:59:00.953Z,19.13
2018-12-21T22:04:05.841Z,18.00
2018-12-21T22:09:10.658Z,20.27
2018-12-21T22:14:14.875Z,20.20
2018-12-21T22:19:19.357Z,21.93
2018-12-21T22:24:23.969Z,18.63
2018-12-21T22:29:28.552Z,22.43
2018-12-21T22:34:35.138Z,21.47
2018-12-21T22:39:40.926Z,23.10
2018-12-21T22:44:45.241Z,21.87
2018-12-21T22:49:50.003Z,19.80
2018-12-21T22:54:54.589Z,20.30
2018-12-21T23:00:00.314Z,20.77
2018-12-21T23:05:05.038Z,22.73
2018-12-21T23:10:09.423Z,21.43
2018-12-21T23:15:13.671Z,23.43
2018-12-21T23:20:19.421Z,26.70
2018-12-21T23:25:24.889Z,24.83
2018-12-21T23:30:29.377Z,26.53
2018-12-21T23:35:33.850Z,27.30
2018-12-21T23:40:38.448Z,21.07
2018-12-21T23:45:43.036Z,23.73
2018-12-21T23:50:47.432Z,24.60
2018-12-21T23:55:51.683Z,26.27
